Etusivu
METAR-TAF:

METAR-TAF

Lentoasemat :

Caracas, Venezuela

Leveyspiiri: 10-36N, Pituuspiiri: 066-59W, korkeus merenpinnasta: 43 m

Tämänhetkinen sää

Tämä raportti tehtiin 50 minuuttia sitten, kello 00.00 UTC
Tuuli 3 kn idästä
Lämpötila 27°C
Kosteus 84%
Ilmanpaine 1010 hPa
Näkyvyys 10 km tai enemmän
Hajanaisia pilviä 1300 ft:n korkeudessa
Hajonneita pilviä 7000 ft:n korkeudessa

METAR: SVMI 240000Z 09003KT 9999 SCT013 BKN070 27/24 Q1010

Aika: 20:50 (00:50 UTC)

Sääennuste

Tämä raportti tehtiin 2 tuntia ja 50 minuuttia sitten, kello 22.00 UTC
Ennuste voimassa 24. päivästä klo 00 UTC - 25. päivään klo 00 UTC
Tuuli 4 kn idästä/koillisesta
Näkyvyys 10 km tai enemmän
Hajonneita pilviä 1600 ft:n korkeudessa
Tulossa
24. päivästä klo 00 UTC - 24. päivään klo 04 UTC
Tuuli 3 kn etelästä/lounaasta
Näkyvyys 10 km tai enemmän
Hajonneita pilviä 1600 ft:n korkeudessa
Hajonneita pilviä 1600 ft:n korkeudessa
heikkoa tihkusadetta
Ajoittain
24. päivästä klo 03 UTC - 24. päivään klo 07 UTC
Tuuli 2 kn lounaasta
Näkyvyys 10 km tai enemmän
Hajanaisia pilviä 8000 ft:n korkeudessa
Hajonneita pilviä 6000 ft:n korkeudessa
Hajonneita pilviä 1600 ft:n korkeudessa
heikkoa tihkusadetta
Tulossa
24. päivästä klo 01 UTC - 24. päivään klo 09 UTC
Tuuli 3 kn etelästä/kaakosta
Näkyvyys 10 km tai enemmän
Hajanaisia pilviä 6000 ft:n korkeudessa
Hajonneita pilviä 10000 ft:n korkeudessa
Hajonneita pilviä 1600 ft:n korkeudessa
heikkoa tihkusadetta
Tulossa
24. päivästä klo 05 UTC - 24. päivään klo 08 UTC
Tuuli 5 kn etelästä/kaakosta
Näkyvyys 10 km tai enemmän
Hajanaisia pilviä 6000 ft:n korkeudessa
Hajonneita pilviä 2000 ft:n korkeudessa
Hajonneita pilviä 1600 ft:n korkeudessa
Ajoittain
24. päivästä klo 02 UTC - 24. päivään klo 06 UTC
Tuuli 6 kn kaakosta
Näkyvyys 10 km tai enemmän
Hajonneita pilviä 2000 ft:n korkeudessa
Hajonneita pilviä 1600 ft:n korkeudessa
heikkoa tihkusadetta
Ajoittain
24. päivästä klo 00 UTC - 24. päivään klo 04 UTC
Tuuli 5 kn etelästä
Näkyvyys 10 km tai enemmän
Hajonneita pilviä 1600 ft:n korkeudessa
Hajonneita pilviä 1600 ft:n korkeudessa
heikkoa tihkusadetta
Ajoittain
24. päivästä klo 01 UTC - 24. päivään klo 05 UTC
Tuuli 1 kn lounaasta
Näkyvyys: 9000 m
Hajanaisia pilviä 6000 ft:n korkeudessa
Hajonneita pilviä 1600 ft:n korkeudessa
heikkoa tihkusadetta,

TAF: SVMI 232200Z 2400/2500 07004KT 9999 BKN016 TX34/2418Z TN22/2408Z BECMG 2400/2404 09006KT 9000 -DZ BKN016 SVMC 232200Z 2400/2500 21003KT 9999 BKN016 TX35/2419Z TN24/2407Z TEMPO 2403/2407 21005KT 9000 -DZ SCT080 BKN060 SVBC 232200Z 2400/2500 22002KT 9999 BKN016 TX35/2418Z TN23/2406Z BECMG 2401/2409 21004KT 9000 -DZ SCT060 BKN100 SVMG 232200Z 2400/2500 15003KT 9999 BKN016 TX34/2418Z TN23/2408Z BECMG 2405/2408 24001KT 9999 SCT060 BKN020 SVSA 232200Z 2400/2500 16005KT 9999 BKN016 TX32/2418Z TN17/2406Z TEMPO 2402/2406 14005KT 9000 -DZ BKN020 SVJC 232200Z 2400/2500 13006KT 9999 BKN016 TX35/2419Z TN24/2408Z TEMPO 2400/2404 24002KT 9000 -DZ BKN016 SVPR 232200Z 2400/2500 18005KT 9999 BKN016 TX35/2418Z TN23/2407Z TEMPO 2401/2405 23001KT 9000 -DZ SCT060 BKN016

Säähavainnot ja -ennusteet yli 4000 lentoasemalta (METAR- ja TAF-raportit).

Käytössä olevat sääasemat on merkitty karttaan keltaisilla ja punaisilla pisteillä.

Aseta hiiri pisteen päälle nähdäksesi sääaseman nimen.

Klikkaa sitten nähdäksesi säähavainnot ja -ennusteet.

Kartan vaihtaminen: klikkaa mustalla rastilla varustettuja vihreitä pisteitä, niin voit zoomata sisään; viivalla varustettua vihreää pistettä, niin voit zoomata ulos tai vihreitä nuolia, niin pääset viereisille kartoille.


METAR-TAF: